sensor_id;sensor_type;location;lat;lon;timestamp;temperature;humidity
19536;HTU21D;9913;51.168;4.124;2023-07-24T00:00:00;17.76;100.08
19536;HTU21D;9913;51.168;4.124;2023-07-24T00:02:31;17.76;100.01
19536;HTU21D;9913;51.168;4.124;2023-07-24T00:05:00;17.76;99.76
19536;HTU21D;9913;51.168;4.124;2023-07-24T00:07:28;17.75;99.51
19536;HTU21D;9913;51.168;4.124;2023-07-24T00:09:56;17.76;99.35
19536;HTU21D;9913;51.168;4.124;2023-07-24T00:12:25;17.79;99.46
19536;HTU21D;9913;51.168;4.124;2023-07-24T00:14:54;17.76;99.57
19536;HTU21D;9913;51.168;4.124;2023-07-24T00:17:23;17.77;99.72
19536;HTU21D;9913;51.168;4.124;2023-07-24T00:19:52;17.81;99.58
19536;HTU21D;9913;51.168;4.124;2023-07-24T00:22:20;17.74;99.58
19536;HTU21D;9913;51.168;4.124;2023-07-24T00:24:49;17.69;99.63
19536;HTU21D;9913;51.168;4.124;2023-07-24T00:27:17;17.68;99.53
19536;HTU21D;9913;51.168;4.124;2023-07-24T00:29:46;17.72;99.97
19536;HTU21D;9913;51.168;4.124;2023-07-24T00:32:15;17.73;100.14
19536;HTU21D;9913;51.168;4.124;2023-07-24T00:34:44;17.73;99.88
19536;HTU21D;9913;51.168;4.124;2023-07-24T00:37:12;17.76;99.80
19536;HTU21D;9913;51.168;4.124;2023-07-24T00:39:41;17.80;99.64
19536;HTU21D;9913;51.168;4.124;2023-07-24T00:42:09;17.77;99.70
19536;HTU21D;9913;51.168;4.124;2023-07-24T00:44:37;17.73;99.99
19536;HTU21D;9913;51.168;4.124;2023-07-24T00:47:06;17.73;100.03
19536;HTU21D;9913;51.168;4.124;2023-07-24T00:49:36;17.73;100.00
19536;HTU21D;9913;51.168;4.124;2023-07-24T00:52:05;17.75;100.29
19536;HTU21D;9913;51.168;4.124;2023-07-24T00:54:34;17.64;100.29
19536;HTU21D;9913;51.168;4.124;2023-07-24T00:57:03;17.67;100.56
19536;HTU21D;9913;51.168;4.124;2023-07-24T00:59:32;17.66;100.64
19536;HTU21D;9913;51.168;4.124;2023-07-24T01:02:01;17.68;100.70
19536;HTU21D;9913;51.168;4.124;2023-07-24T01:04:30;17.69;100.78
19536;HTU21D;9913;51.168;4.124;2023-07-24T01:06:59;17.74;100.83
19536;HTU21D;9913;51.168;4.124;2023-07-24T01:09:28;17.73;100.79
19536;HTU21D;9913;51.168;4.124;2023-07-24T01:11:59;17.74;100.73
19536;HTU21D;9913;51.168;4.124;2023-07-24T01:14:34;17.75;100.17
19536;HTU21D;9913;51.168;4.124;2023-07-24T01:17:07;17.69;99.94
19536;HTU21D;9913;51.168;4.124;2023-07-24T01:19:39;17.68;100.12
19536;HTU21D;9913;51.168;4.124;2023-07-24T01:22:17;17.67;100.24
19536;HTU21D;9913;51.168;4.124;2023-07-24T01:25:09;17.67;100.38
19536;HTU21D;9913;51.168;4.124;2023-07-24T01:27:43;17.66;100.88
19536;HTU21D;9913;51.168;4.124;2023-07-24T01:30:17;17.66;101.06
19536;HTU21D;9913;51.168;4.124;2023-07-24T01:32:47;17.63;101.67
19536;HTU21D;9913;51.168;4.124;2023-07-24T01:35:16;17.60;101.89
19536;HTU21D;9913;51.168;4.124;2023-07-24T01:37:46;17.60;102.29
19536;HTU21D;9913;51.168;4.124;2023-07-24T01:40:15;17.55;102.12
19536;HTU21D;9913;51.168;4.124;2023-07-24T01:42:45;17.56;102.01
19536;HTU21D;9913;51.168;4.124;2023-07-24T01:45:14;17.53;102.14
19536;HTU21D;9913;51.168;4.124;2023-07-24T01:47:42;17.54;102.16
19536;HTU21D;9913;51.168;4.124;2023-07-24T01:50:10;17.47;102.55
19536;HTU21D;9913;51.168;4.124;2023-07-24T01:52:39;17.48;102.96
19536;HTU21D;9913;51.168;4.124;2023-07-24T01:55:07;17.44;102.56
19536;HTU21D;9913;51.168;4.124;2023-07-24T01:57:36;17.41;102.49
19536;HTU21D;9913;51.168;4.124;2023-07-24T02:00:08;17.43;102.50
19536;HTU21D;9913;51.168;4.124;2023-07-24T02:02:36;17.34;101.76
19536;HTU21D;9913;51.168;4.124;2023-07-24T02:05:05;17.35;102.01
19536;HTU21D;9913;51.168;4.124;2023-07-24T02:07:33;17.26;101.67
19536;HTU21D;9913;51.168;4.124;2023-07-24T02:10:02;17.20;101.47
19536;HTU21D;9913;51.168;4.124;2023-07-24T02:12:30;17.21;101.98
19536;HTU21D;9913;51.168;4.124;2023-07-24T02:14:59;17.26;102.60
19536;HTU21D;9913;51.168;4.124;2023-07-24T02:17:31;17.29;102.93
19536;HTU21D;9913;51.168;4.124;2023-07-24T02:19:59;17.26;103.19
19536;HTU21D;9913;51.168;4.124;2023-07-24T02:22:34;17.20;103.10
19536;HTU21D;9913;51.168;4.124;2023-07-24T02:25:06;17.19;103.31
19536;HTU21D;9913;51.168;4.124;2023-07-24T02:27:34;17.26;103.44
19536;HTU21D;9913;51.168;4.124;2023-07-24T02:30:03;17.18;103.59
19536;HTU21D;9913;51.168;4.124;2023-07-24T02:32:32;17.14;103.61
19536;HTU21D;9913;51.168;4.124;2023-07-24T02:35:01;17.16;104.00
19536;HTU21D;9913;51.168;4.124;2023-07-24T02:37:30;17.14;104.13
19536;HTU21D;9913;51.168;4.124;2023-07-24T02:39:58;17.22;104.44
19536;HTU21D;9913;51.168;4.124;2023-07-24T02:42:28;17.19;104.28
19536;HTU21D;9913;51.168;4.124;2023-07-24T02:44:56;17.08;103.83
19536;HTU21D;9913;51.168;4.124;2023-07-24T02:47:24;17.05;103.73
19536;HTU21D;9913;51.168;4.124;2023-07-24T02:49:54;17.20;104.58
19536;HTU21D;9913;51.168;4.124;2023-07-24T02:52:22;17.02;104.28
19536;HTU21D;9913;51.168;4.124;2023-07-24T02:54:51;17.01;104.16
19536;HTU21D;9913;51.168;4.124;2023-07-24T02:57:20;17.09;104.26
19536;HTU21D;9913;51.168;4.124;2023-07-24T02:59:48;17.13;104.31
19536;HTU21D;9913;51.168;4.124;2023-07-24T03:02:17;17.04;104.32
19536;HTU21D;9913;51.168;4.124;2023-07-24T03:04:45;17.03;104.53
19536;HTU21D;9913;51.168;4.124;2023-07-24T03:07:15;16.91;104.33
19536;HTU21D;9913;51.168;4.124;2023-07-24T03:09:43;16.91;104.22
19536;HTU21D;9913;51.168;4.124;2023-07-24T03:12:11;16.79;103.96
19536;HTU21D;9913;51.168;4.124;2023-07-24T03:14:40;16.69;103.79
19536;HTU21D;9913;51.168;4.124;2023-07-24T03:17:08;16.64;104.15
19536;HTU21D;9913;51.168;4.124;2023-07-24T03:19:37;16.56;104.02
19536;HTU21D;9913;51.168;4.124;2023-07-24T03:22:05;16.48;104.22
19536;HTU21D;9913;51.168;4.124;2023-07-24T03:24:35;16.49;104.07
19536;HTU21D;9913;51.168;4.124;2023-07-24T03:27:04;16.43;103.87
19536;HTU21D;9913;51.168;4.124;2023-07-24T03:29:33;16.32;103.62
19536;HTU21D;9913;51.168;4.124;2023-07-24T03:32:01;16.36;104.12
19536;HTU21D;9913;51.168;4.124;2023-07-24T03:34:29;16.26;103.22
19536;HTU21D;9913;51.168;4.124;2023-07-24T03:36:57;16.14;102.99
19536;HTU21D;9913;51.168;4.124;2023-07-24T03:39:26;16.22;103.72
19536;HTU21D;9913;51.168;4.124;2023-07-24T03:41:56;16.18;103.71
19536;HTU21D;9913;51.168;4.124;2023-07-24T03:44:25;16.16;103.58
19536;HTU21D;9913;51.168;4.124;2023-07-24T03:46:54;16.18;103.47
19536;HTU21D;9913;51.168;4.124;2023-07-24T03:49:22;16.33;104.60
19536;HTU21D;9913;51.168;4.124;2023-07-24T03:51:50;16.15;104.42
19536;HTU21D;9913;51.168;4.124;2023-07-24T03:54:19;16.21;104.50
19536;HTU21D;9913;51.168;4.124;2023-07-24T03:56:47;16.26;105.29
19536;HTU21D;9913;51.168;4.124;2023-07-24T03:59:17;16.32;105.24
19536;HTU21D;9913;51.168;4.124;2023-07-24T04:01:45;16.22;105.11
19536;HTU21D;9913;51.168;4.124;2023-07-24T04:04:13;16.30;105.47
19536;HTU21D;9913;51.168;4.124;2023-07-24T04:06:42;16.18;105.11
19536;HTU21D;9913;51.168;4.124;2023-07-24T04:09:10;16.18;104.96
19536;HTU21D;9913;51.168;4.124;2023-07-24T04:11:42;16.27;105.58
19536;HTU21D;9913;51.168;4.124;2023-07-24T04:14:10;16.18;105.53
19536;HTU21D;9913;51.168;4.124;2023-07-24T04:16:40;16.22;105.25
19536;HTU21D;9913;51.168;4.124;2023-07-24T04:19:08;16.14;104.69
19536;HTU21D;9913;51.168;4.124;2023-07-24T04:21:37;16.13;104.63
19536;HTU21D;9913;51.168;4.124;2023-07-24T04:24:05;16.13;104.93
19536;HTU21D;9913;51.168;4.124;2023-07-24T04:26:34;16.10;104.54
19536;HTU21D;9913;51.168;4.124;2023-07-24T04:29:04;16.01;103.83
19536;HTU21D;9913;51.168;4.124;2023-07-24T04:31:32;16.18;104.24
19536;HTU21D;9913;51.168;4.124;2023-07-24T04:34:02;16.11;104.72
19536;HTU21D;9913;51.168;4.124;2023-07-24T04:36:30;15.83;103.88
19536;HTU21D;9913;51.168;4.124;2023-07-24T04:38:59;15.91;103.82
19536;HTU21D;9913;51.168;4.124;2023-07-24T04:41:27;15.95;103.02
19536;HTU21D;9913;51.168;4.124;2023-07-24T04:43:55;16.00;103.02
19536;HTU21D;9913;51.168;4.124;2023-07-24T04:46:24;16.13;103.28
19536;HTU21D;9913;51.168;4.124;2023-07-24T04:48:52;16.03;102.54
19536;HTU21D;9913;51.168;4.124;2023-07-24T04:51:22;16.16;102.70
19536;HTU21D;9913;51.168;4.124;2023-07-24T04:53:50;16.02;101.54
19536;HTU21D;9913;51.168;4.124;2023-07-24T04:56:19;16.25;102.28
19536;HTU21D;9913;51.168;4.124;2023-07-24T04:58:47;16.16;102.11
19536;HTU21D;9913;51.168;4.124;2023-07-24T05:01:15;16.24;102.04
19536;HTU21D;9913;51.168;4.124;2023-07-24T05:03:44;16.20;101.71
19536;HTU21D;9913;51.168;4.124;2023-07-24T05:06:12;16.30;102.39
19536;HTU21D;9913;51.168;4.124;2023-07-24T05:08:42;16.24;102.30
19536;HTU21D;9913;51.168;4.124;2023-07-24T05:11:10;16.25;102.11
19536;HTU21D;9913;51.168;4.124;2023-07-24T05:13:38;16.22;102.38
19536;HTU21D;9913;51.168;4.124;2023-07-24T05:16:07;16.26;101.73
19536;HTU21D;9913;51.168;4.124;2023-07-24T05:18:35;16.32;101.76
19536;HTU21D;9913;51.168;4.124;2023-07-24T05:21:06;16.28;101.37
19536;HTU21D;9913;51.168;4.124;2023-07-24T05:23:35;16.29;101.70
19536;HTU21D;9913;51.168;4.124;2023-07-24T05:26:05;16.30;101.80
19536;HTU21D;9913;51.168;4.124;2023-07-24T05:28:33;16.33;102.02
19536;HTU21D;9913;51.168;4.124;2023-07-24T05:31:02;16.24;101.91
19536;HTU21D;9913;51.168;4.124;2023-07-24T05:33:31;16.37;102.10
19536;HTU21D;9913;51.168;4.124;2023-07-24T05:35:59;16.47;102.22
19536;HTU21D;9913;51.168;4.124;2023-07-24T05:38:28;16.45;102.30
19536;HTU21D;9913;51.168;4.124;2023-07-24T05:40:57;16.50;102.15
19536;HTU21D;9913;51.168;4.124;2023-07-24T05:43:27;16.55;102.15
19536;HTU21D;9913;51.168;4.124;2023-07-24T05:45:57;16.57;102.16
19536;HTU21D;9913;51.168;4.124;2023-07-24T05:48:26;16.66;102.36
19536;HTU21D;9913;51.168;4.124;2023-07-24T05:50:54;16.56;102.02
19536;HTU21D;9913;51.168;4.124;2023-07-24T05:53:22;16.57;102.41
19536;HTU21D;9913;51.168;4.124;2023-07-24T05:56:01;16.60;102.17
19536;HTU21D;9913;51.168;4.124;2023-07-24T05:58:31;16.60;102.07
19536;HTU21D;9913;51.168;4.124;2023-07-24T06:01:00;16.52;102.27
19536;HTU21D;9913;51.168;4.124;2023-07-24T06:03:28;16.54;102.35
19536;HTU21D;9913;51.168;4.124;2023-07-24T06:05:57;16.49;102.36
19536;HTU21D;9913;51.168;4.124;2023-07-24T06:08:25;16.62;102.20
19536;HTU21D;9913;51.168;4.124;2023-07-24T06:10:53;16.69;101.93
19536;HTU21D;9913;51.168;4.124;2023-07-24T06:13:22;16.72;102.11
19536;HTU21D;9913;51.168;4.124;2023-07-24T06:15:52;16.74;101.64
19536;HTU21D;9913;51.168;4.124;2023-07-24T06:18:20;16.79;101.71
19536;HTU21D;9913;51.168;4.124;2023-07-24T06:20:52;16.90;101.53
19536;HTU21D;9913;51.168;4.124;2023-07-24T06:23:21;17.06;101.58
19536;HTU21D;9913;51.168;4.124;2023-07-24T06:25:49;17.13;101.41
19536;HTU21D;9913;51.168;4.124;2023-07-24T06:28:18;17.13;101.18
19536;HTU21D;9913;51.168;4.124;2023-07-24T06:30:47;17.10;101.06
19536;HTU21D;9913;51.168;4.124;2023-07-24T06:33:16;17.13;101.49
19536;HTU21D;9913;51.168;4.124;2023-07-24T06:35:45;17.15;101.44
19536;HTU21D;9913;51.168;4.124;2023-07-24T06:38:13;17.24;101.21
19536;HTU21D;9913;51.168;4.124;2023-07-24T06:40:41;17.33;101.25
19536;HTU21D;9913;51.168;4.124;2023-07-24T06:43:10;17.21;101.38
19536;HTU21D;9913;51.168;4.124;2023-07-24T06:45:38;17.39;101.48
19536;HTU21D;9913;51.168;4.124;2023-07-24T06:48:07;17.46;101.28
19536;HTU21D;9913;51.168;4.124;2023-07-24T06:50:37;17.55;101.41
19536;HTU21D;9913;51.168;4.124;2023-07-24T06:53:05;17.58;101.71
19536;HTU21D;9913;51.168;4.124;2023-07-24T06:55:33;17.48;101.51
19536;HTU21D;9913;51.168;4.124;2023-07-24T06:58:01;17.50;101.73
19536;HTU21D;9913;51.168;4.124;2023-07-24T07:00:31;17.44;102.44
19536;HTU21D;9913;51.168;4.124;2023-07-24T07:02:59;17.46;102.15
19536;HTU21D;9913;51.168;4.124;2023-07-24T07:05:28;17.45;101.73
19536;HTU21D;9913;51.168;4.124;2023-07-24T07:07:58;17.43;102.18
19536;HTU21D;9913;51.168;4.124;2023-07-24T07:10:26;17.46;102.41
19536;HTU21D;9913;51.168;4.124;2023-07-24T07:12:55;17.37;102.41
19536;HTU21D;9913;51.168;4.124;2023-07-24T07:15:23;17.22;102.99
19536;HTU21D;9913;51.168;4.124;2023-07-24T07:17:51;17.18;102.90
19536;HTU21D;9913;51.168;4.124;2023-07-24T07:20:20;17.09;102.74
19536;HTU21D;9913;51.168;4.124;2023-07-24T07:22:48;17.22;103.52
19536;HTU21D;9913;51.168;4.124;2023-07-24T07:25:18;17.15;103.35
19536;HTU21D;9913;51.168;4.124;2023-07-24T07:27:46;17.17;103.42
19536;HTU21D;9913;51.168;4.124;2023-07-24T07:30:14;17.09;103.38
19536;HTU21D;9913;51.168;4.124;2023-07-24T07:32:43;17.09;103.49
19536;HTU21D;9913;51.168;4.124;2023-07-24T07:35:11;17.21;104.17
19536;HTU21D;9913;51.168;4.124;2023-07-24T07:37:40;17.29;104.36
19536;HTU21D;9913;51.168;4.124;2023-07-24T07:40:09;17.31;104.08
19536;HTU21D;9913;51.168;4.124;2023-07-24T07:42:38;17.46;103.73
19536;HTU21D;9913;51.168;4.124;2023-07-24T07:45:09;17.67;103.63
19536;HTU21D;9913;51.168;4.124;2023-07-24T07:47:38;17.78;103.03
19536;HTU21D;9913;51.168;4.124;2023-07-24T07:50:06;17.69;102.86
19536;HTU21D;9913;51.168;4.124;2023-07-24T07:52:35;17.63;103.21
19536;HTU21D;9913;51.168;4.124;2023-07-24T07:55:04;17.53;103.55
19536;HTU21D;9913;51.168;4.124;2023-07-24T07:57:34;17.43;103.16
19536;HTU21D;9913;51.168;4.124;2023-07-24T08:00:05;17.50;102.80
19536;HTU21D;9913;51.168;4.124;2023-07-24T08:02:34;17.49;102.80
19536;HTU21D;9913;51.168;4.124;2023-07-24T08:05:02;17.60;102.86
19536;HTU21D;9913;51.168;4.124;2023-07-24T08:07:42;17.66;102.52
19536;HTU21D;9913;51.168;4.124;2023-07-24T08:10:10;17.82;103.19
19536;HTU21D;9913;51.168;4.124;2023-07-24T08:12:42;17.77;102.51
19536;HTU21D;9913;51.168;4.124;2023-07-24T08:15:12;17.94;102.72
19536;HTU21D;9913;51.168;4.124;2023-07-24T08:17:40;18.10;102.77
19536;HTU21D;9913;51.168;4.124;2023-07-24T08:20:09;18.04;102.55
19536;HTU21D;9913;51.168;4.124;2023-07-24T08:22:38;18.11;102.49
19536;HTU21D;9913;51.168;4.124;2023-07-24T08:25:07;18.09;102.65
19536;HTU21D;9913;51.168;4.124;2023-07-24T08:27:35;18.13;102.86
19536;HTU21D;9913;51.168;4.124;2023-07-24T08:30:25;18.20;102.41
19536;HTU21D;9913;51.168;4.124;2023-07-24T08:32:53;17.98;103.25
19536;HTU21D;9913;51.168;4.124;2023-07-24T08:35:22;17.92;102.89
19536;HTU21D;9913;51.168;4.124;2023-07-24T08:37:50;18.04;103.70
19536;HTU21D;9913;51.168;4.124;2023-07-24T08:40:18;17.92;102.88
19536;HTU21D;9913;51.168;4.124;2023-07-24T08:42:49;17.95;103.69
19536;HTU21D;9913;51.168;4.124;2023-07-24T08:45:18;17.95;103.56
19536;HTU21D;9913;51.168;4.124;2023-07-24T08:47:48;17.93;103.20
19536;HTU21D;9913;51.168;4.124;2023-07-24T08:50:16;17.91;102.86
19536;HTU21D;9913;51.168;4.124;2023-07-24T08:52:45;18.17;103.62
19536;HTU21D;9913;51.168;4.124;2023-07-24T08:55:14;18.49;103.22
19536;HTU21D;9913;51.168;4.124;2023-07-24T08:57:43;18.43;103.91
19536;HTU21D;9913;51.168;4.124;2023-07-24T09:00:12;18.53;103.12
19536;HTU21D;9913;51.168;4.124;2023-07-24T09:02:40;18.42;103.76
19536;HTU21D;9913;51.168;4.124;2023-07-24T09:05:11;18.47;103.52
19536;HTU21D;9913;51.168;4.124;2023-07-24T09:07:41;18.43;103.47
19536;HTU21D;9913;51.168;4.124;2023-07-24T09:10:10;18.55;104.12
19536;HTU21D;9913;51.168;4.124;2023-07-24T09:12:41;18.71;103.69
19536;HTU21D;9913;51.168;4.124;2023-07-24T09:15:10;18.62;103.66
19536;HTU21D;9913;51.168;4.124;2023-07-24T09:17:48;18.54;103.30
19536;HTU21D;9913;51.168;4.124;2023-07-24T09:20:19;18.50;103.70
19536;HTU21D;9913;51.168;4.124;2023-07-24T09:22:51;18.41;104.23
19536;HTU21D;9913;51.168;4.124;2023-07-24T09:25:41;18.41;103.64
19536;HTU21D;9913;51.168;4.124;2023-07-24T09:28:10;18.63;104.01
19536;HTU21D;9913;51.168;4.124;2023-07-24T09:30:40;18.95;103.23
19536;HTU21D;9913;51.168;4.124;2023-07-24T09:33:08;19.08;103.57
19536;HTU21D;9913;51.168;4.124;2023-07-24T09:35:38;19.08;103.40
19536;HTU21D;9913;51.168;4.124;2023-07-24T09:38:08;19.06;103.55
19536;HTU21D;9913;51.168;4.124;2023-07-24T09:40:39;19.29;103.25
19536;HTU21D;9913;51.168;4.124;2023-07-24T09:43:15;19.51;103.73
19536;HTU21D;9913;51.168;4.124;2023-07-24T09:46:04;19.95;104.34
19536;HTU21D;9913;51.168;4.124;2023-07-24T09:48:34;19.79;103.25
19536;HTU21D;9913;51.168;4.124;2023-07-24T09:51:11;19.87;102.70
19536;HTU21D;9913;51.168;4.124;2023-07-24T09:53:43;20.04;102.58
19536;HTU21D;9913;51.168;4.124;2023-07-24T09:56:17;19.90;104.78
19536;HTU21D;9913;51.168;4.124;2023-07-24T09:58:58;19.95;104.19
19536;HTU21D;9913;51.168;4.124;2023-07-24T10:01:28;19.87;102.91
19536;HTU21D;9913;51.168;4.124;2023-07-24T10:04:01;20.05;102.68
19536;HTU21D;9913;51.168;4.124;2023-07-24T10:06:31;20.09;101.80
19536;HTU21D;9913;51.168;4.124;2023-07-24T10:09:00;20.03;100.96
19536;HTU21D;9913;51.168;4.124;2023-07-24T10:11:29;19.89;104.33
19536;HTU21D;9913;51.168;4.124;2023-07-24T10:13:58;19.82;103.02
19536;HTU21D;9913;51.168;4.124;2023-07-24T10:16:27;19.99;103.32
19536;HTU21D;9913;51.168;4.124;2023-07-24T10:18:56;19.91;103.58
19536;HTU21D;9913;51.168;4.124;2023-07-24T10:21:27;19.80;106.14
19536;HTU21D;9913;51.168;4.124;2023-07-24T10:24:00;19.75;103.89
19536;HTU21D;9913;51.168;4.124;2023-07-24T10:26:28;19.90;103.49
19536;HTU21D;9913;51.168;4.124;2023-07-24T10:28:57;19.65;104.34
19536;HTU21D;9913;51.168;4.124;2023-07-24T10:31:29;19.37;103.60
19536;HTU21D;9913;51.168;4.124;2023-07-24T10:34:04;19.32;105.34
19536;HTU21D;9913;51.168;4.124;2023-07-24T10:36:34;19.09;103.12
19536;HTU21D;9913;51.168;4.124;2023-07-24T10:39:13;18.94;104.47
19536;HTU21D;9913;51.168;4.124;2023-07-24T10:41:42;18.85;104.31
19536;HTU21D;9913;51.168;4.124;2023-07-24T10:44:12;19.01;104.24
19536;HTU21D;9913;51.168;4.124;2023-07-24T10:46:41;19.46;101.86
19536;HTU21D;9913;51.168;4.124;2023-07-24T10:49:10;19.56;103.73
19536;HTU21D;9913;51.168;4.124;2023-07-24T10:51:38;19.88;102.35
19536;HTU21D;9913;51.168;4.124;2023-07-24T10:54:09;20.00;102.95
19536;HTU21D;9913;51.168;4.124;2023-07-24T10:56:37;20.61;102.42
19536;HTU21D;9913;51.168;4.124;2023-07-24T10:59:05;20.69;103.12
19536;HTU21D;9913;51.168;4.124;2023-07-24T11:01:34;20.53;99.94
19536;HTU21D;9913;51.168;4.124;2023-07-24T11:04:03;20.59;102.76
19536;HTU21D;9913;51.168;4.124;2023-07-24T11:06:31;21.10;101.60
19536;HTU21D;9913;51.168;4.124;2023-07-24T11:09:00;21.38;100.42
19536;HTU21D;9913;51.168;4.124;2023-07-24T11:11:30;21.87;98.92
19536;HTU21D;9913;51.168;4.124;2023-07-24T11:14:01;22.43;99.34
19536;HTU21D;9913;51.168;4.124;2023-07-24T11:16:30;22.68;97.86
19536;HTU21D;9913;51.168;4.124;2023-07-24T11:19:00;22.84;91.21
19536;HTU21D;9913;51.168;4.124;2023-07-24T11:21:29;22.37;97.71
19536;HTU21D;9913;51.168;4.124;2023-07-24T11:23:58;22.57;93.61
19536;HTU21D;9913;51.168;4.124;2023-07-24T11:26:26;22.10;92.85
19536;HTU21D;9913;51.168;4.124;2023-07-24T11:28:57;21.05;98.50
19536;HTU21D;9913;51.168;4.124;2023-07-24T11:31:25;21.13;97.31
19536;HTU21D;9913;51.168;4.124;2023-07-24T11:33:54;21.05;94.41
19536;HTU21D;9913;51.168;4.124;2023-07-24T11:36:23;21.02;99.37
19536;HTU21D;9913;51.168;4.124;2023-07-24T11:38:51;21.54;94.16
19536;HTU21D;9913;51.168;4.124;2023-07-24T11:41:22;21.00;98.23
19536;HTU21D;9913;51.168;4.124;2023-07-24T11:43:51;21.85;98.76
19536;HTU21D;9913;51.168;4.124;2023-07-24T11:46:24;23.17;95.38
19536;HTU21D;9913;51.168;4.124;2023-07-24T11:48:53;23.09;95.71
19536;HTU21D;9913;51.168;4.124;2023-07-24T11:51:25;21.85;95.58
19536;HTU21D;9913;51.168;4.124;2023-07-24T11:54:06;21.11;98.00
19536;HTU21D;9913;51.168;4.124;2023-07-24T11:56:35;20.65;98.76
19536;HTU21D;9913;51.168;4.124;2023-07-24T11:59:10;20.09;99.98
19536;HTU21D;9913;51.168;4.124;2023-07-24T12:01:40;20.37;96.29
19536;HTU21D;9913;51.168;4.124;2023-07-24T12:04:09;20.11;96.21
19536;HTU21D;9913;51.168;4.124;2023-07-24T12:06:38;20.00;99.23
19536;HTU21D;9913;51.168;4.124;2023-07-24T12:09:07;20.16;99.26
19536;HTU21D;9913;51.168;4.124;2023-07-24T12:11:39;19.71;101.28
19536;HTU21D;9913;51.168;4.124;2023-07-24T12:14:12;19.50;101.58
19536;HTU21D;9913;51.168;4.124;2023-07-24T12:16:42;19.60;101.42
19536;HTU21D;9913;51.168;4.124;2023-07-24T12:19:11;19.92;101.36
19536;HTU21D;9913;51.168;4.124;2023-07-24T12:21:39;20.32;99.77
19536;HTU21D;9913;51.168;4.124;2023-07-24T12:24:07;20.58;99.45
19536;HTU21D;9913;51.168;4.124;2023-07-24T12:26:35;20.86;98.52
19536;HTU21D;9913;51.168;4.124;2023-07-24T12:29:04;20.88;97.90
19536;HTU21D;9913;51.168;4.124;2023-07-24T12:31:32;20.45;97.58
19536;HTU21D;9913;51.168;4.124;2023-07-24T12:34:03;20.42;99.76
19536;HTU21D;9913;51.168;4.124;2023-07-24T12:36:31;20.19;101.43
19536;HTU21D;9913;51.168;4.124;2023-07-24T12:38:59;20.06;101.88
19536;HTU21D;9913;51.168;4.124;2023-07-24T12:41:28;19.90;100.45
19536;HTU21D;9913;51.168;4.124;2023-07-24T12:43:56;20.12;101.09
19536;HTU21D;9913;51.168;4.124;2023-07-24T12:46:27;19.77;101.54
19536;HTU21D;9913;51.168;4.124;2023-07-24T12:48:55;19.79;102.95
19536;HTU21D;9913;51.168;4.124;2023-07-24T12:51:25;19.41;101.99
19536;HTU21D;9913;51.168;4.124;2023-07-24T12:53:53;18.79;103.11
19536;HTU21D;9913;51.168;4.124;2023-07-24T12:56:42;18.37;104.85
19536;HTU21D;9913;51.168;4.124;2023-07-24T12:59:10;17.94;105.49
19536;HTU21D;9913;51.168;4.124;2023-07-24T13:01:38;17.84;105.02
19536;HTU21D;9913;51.168;4.124;2023-07-24T13:04:07;17.70;104.96
19536;HTU21D;9913;51.168;4.124;2023-07-24T13:06:37;17.41;105.23
19536;HTU21D;9913;51.168;4.124;2023-07-24T13:09:05;17.32;105.89
19536;HTU21D;9913;51.168;4.124;2023-07-24T13:11:34;17.09;105.91
19536;HTU21D;9913;51.168;4.124;2023-07-24T13:14:02;17.19;106.09
19536;HTU21D;9913;51.168;4.124;2023-07-24T13:16:30;17.18;106.16
19536;HTU21D;9913;51.168;4.124;2023-07-24T13:18:59;17.14;105.37
19536;HTU21D;9913;51.168;4.124;2023-07-24T13:21:28;17.26;106.52
19536;HTU21D;9913;51.168;4.124;2023-07-24T13:23:58;17.24;105.95
19536;HTU21D;9913;51.168;4.124;2023-07-24T13:26:26;17.34;106.74
19536;HTU21D;9913;51.168;4.124;2023-07-24T13:28:55;17.22;106.30
19536;HTU21D;9913;51.168;4.124;2023-07-24T13:31:24;17.35;106.69
19536;HTU21D;9913;51.168;4.124;2023-07-24T13:33:52;17.20;106.08
19536;HTU21D;9913;51.168;4.124;2023-07-24T13:36:20;17.09;105.93
19536;HTU21D;9913;51.168;4.124;2023-07-24T13:38:49;16.92;105.76
19536;HTU21D;9913;51.168;4.124;2023-07-24T13:41:20;16.96;107.24
19536;HTU21D;9913;51.168;4.124;2023-07-24T13:43:48;16.79;106.57
19536;HTU21D;9913;51.168;4.124;2023-07-24T13:46:17;16.74;107.20
19536;HTU21D;9913;51.168;4.124;2023-07-24T13:48:46;16.82;107.27
19536;HTU21D;9913;51.168;4.124;2023-07-24T13:51:14;17.01;107.72
19536;HTU21D;9913;51.168;4.124;2023-07-24T13:53:42;16.94;107.33
19536;HTU21D;9913;51.168;4.124;2023-07-24T13:56:24;16.94;107.36
19536;HTU21D;9913;51.168;4.124;2023-07-24T13:59:09;17.05;107.44
19536;HTU21D;9913;51.168;4.124;2023-07-24T14:01:37;17.05;107.01
19536;HTU21D;9913;51.168;4.124;2023-07-24T14:04:06;17.13;106.53
19536;HTU21D;9913;51.168;4.124;2023-07-24T14:06:34;17.26;105.69
19536;HTU21D;9913;51.168;4.124;2023-07-24T14:09:02;17.61;105.95
19536;HTU21D;9913;51.168;4.124;2023-07-24T14:11:32;17.97;104.42
19536;HTU21D;9913;51.168;4.124;2023-07-24T14:14:00;18.13;104.53
19536;HTU21D;9913;51.168;4.124;2023-07-24T14:16:29;18.30;104.21
19536;HTU21D;9913;51.168;4.124;2023-07-24T14:18:57;18.59;103.76
19536;HTU21D;9913;51.168;4.124;2023-07-24T14:21:25;20.00;102.95
19536;HTU21D;9913;51.168;4.124;2023-07-24T14:23:55;19.79;103.46
19536;HTU21D;9913;51.168;4.124;2023-07-24T14:26:23;20.32;104.36
19536;HTU21D;9913;51.168;4.124;2023-07-24T14:28:53;20.71;103.30
19536;HTU21D;9913;51.168;4.124;2023-07-24T14:31:23;21.50;102.38
19536;HTU21D;9913;51.168;4.124;2023-07-24T14:33:51;21.09;101.16
19536;HTU21D;9913;51.168;4.124;2023-07-24T14:36:20;20.45;101.40
19536;HTU21D;9913;51.168;4.124;2023-07-24T14:38:48;21.44;100.83
19536;HTU21D;9913;51.168;4.124;2023-07-24T14:41:17;23.01;99.11
19536;HTU21D;9913;51.168;4.124;2023-07-24T14:43:45;23.92;96.29
19536;HTU21D;9913;51.168;4.124;2023-07-24T14:46:15;23.61;100.30
19536;HTU21D;9913;51.168;4.124;2023-07-24T14:48:44;23.06;99.14
19536;HTU21D;9913;51.168;4.124;2023-07-24T15:03:14;18.05;105.08
19536;HTU21D;9913;51.168;4.124;2023-07-24T15:05:43;18.30;105.88
19536;HTU21D;9913;51.168;4.124;2023-07-24T15:08:11;18.21;105.98
19536;HTU21D;9913;51.168;4.124;2023-07-24T15:10:40;18.20;105.96
19536;HTU21D;9913;51.168;4.124;2023-07-24T15:13:09;18.89;105.54
19536;HTU21D;9913;51.168;4.124;2023-07-24T15:15:41;21.27;103.72
19536;HTU21D;9913;51.168;4.124;2023-07-24T15:18:14;22.61;102.98
19536;HTU21D;9913;51.168;4.124;2023-07-24T15:20:44;22.29;99.70
19536;HTU21D;9913;51.168;4.124;2023-07-24T15:23:17;21.13;102.41
19536;HTU21D;9913;51.168;4.124;2023-07-24T15:25:46;21.39;103.71
19536;HTU21D;9913;51.168;4.124;2023-07-24T15:28:20;20.81;102.83
19536;HTU21D;9913;51.168;4.124;2023-07-24T15:31:02;20.84;103.21
19536;HTU21D;9913;51.168;4.124;2023-07-24T15:33:36;20.25;104.43
19536;HTU21D;9913;51.168;4.124;2023-07-24T15:36:17;19.68;104.62
19536;HTU21D;9913;51.168;4.124;2023-07-24T15:38:52;19.61;104.18
19536;HTU21D;9913;51.168;4.124;2023-07-24T15:41:24;19.53;103.62
19536;HTU21D;9913;51.168;4.124;2023-07-24T15:43:58;19.12;103.96